Aérodrome :
LOGIN :

S'inscrire | Disclaimer

   EN    FR    IT 

 










Légende :    VFR   VFR Marginal   IFR   IFR Intensif   IFR Très Intensif
Visi : 
Plafond : 
>= 8 km
>= 3000ft
5 à 8 km
1000 à 3000 ft
1500m à 5 km
500 à 1000 ft
800 à 1500m
200 à 500 ft
< 800m
< 200 ft
Symboles :   Orages  Brouillard  Fortes neiges  Fortes précipitations  Vent > 20 kt
SIGMETs :   Divers  Orages  Givrage  Turbulence  Onde Orograph.  Cendres Volcan.






- Altitude de l'aérodrome : 485 ft
- Code IATA : QSA


LELL - Sabadell

DERNIER METAR :
  • 171630Z 26015KT 9999 FEW030 15/05 Q1024

METARs EXPIRÉS :
  • 171600Z 26022G35KT 9999 FEW030 15/05 Q1023 WS R31
  • 171530Z 26015G30KT 220V290 9999 FEW030 15/05 Q1023 WS R31
  • 171500Z 25017G27KT 220V280 9999 FEW030 16/05 Q1023
  • 171448Z 25016G27KT 230V290 9999 FEW030 16/06 Q1023
  • 171430Z 26016KT 200V300 9999 FEW030 16/06 Q1023
  • 171400Z 25017KT 230V290 9999 FEW030 16/05 Q1023

TAF TAF LELL
Valide du 17 à 15h jusqu'au 18 à 15h UTC


171400Z 1715/1815 25005KT CAVOK TX13/1813Z TN03/1806Z
TEMPO 1715/1718 27014G30KT



MET'MAP, la Météo Aéronautique d'un coup d'oeil ! - Copyright ORBIFLY Décembre 2007 - Disclaimer

ORBIFLY MET'MAP TEAM :

Programmation & Développement : Alexandra Zaïnal
Sur une idée originale de : Baudouin d'Aumeries
Assistance à la programmation : Marc-Olivier Méhu
Soutien technique & logistique : Manuel Goepfert

Contact : metmap@orbifly.com




SOURCES & CREDITS :

   NOAA